sensor_id;sensor_type;location;lat;lon;timestamp;P1;durP1;ratioP1;P2;durP2;ratioP2
45762;SDS011;37512;52.408;13.356;2023-12-07T00:04:39;25.20;;;15.02;;
45762;SDS011;37512;52.408;13.356;2023-12-07T00:08:46;25.88;;;16.23;;
45762;SDS011;37512;52.408;13.356;2023-12-07T00:12:48;27.38;;;15.75;;
45762;SDS011;37512;52.408;13.356;2023-12-07T00:17:11;27.55;;;16.75;;
45762;SDS011;37512;52.408;13.356;2023-12-07T00:21:32;28.20;;;16.75;;
45762;SDS011;37512;52.408;13.356;2023-12-07T00:25:34;28.52;;;16.05;;
45762;SDS011;37512;52.408;13.356;2023-12-07T00:29:36;25.70;;;15.88;;
45762;SDS011;37512;52.408;13.356;2023-12-07T00:33:39;27.23;;;14.73;;
45762;SDS011;37512;52.408;13.356;2023-12-07T00:37:40;25.92;;;15.48;;
45762;SDS011;37512;52.408;13.356;2023-12-07T00:41:42;28.45;;;16.63;;
45762;SDS011;37512;52.408;13.356;2023-12-07T00:45:43;25.13;;;15.23;;
45762;SDS011;37512;52.408;13.356;2023-12-07T00:49:45;28.80;;;17.08;;
45762;SDS011;37512;52.408;13.356;2023-12-07T00:53:46;25.52;;;14.98;;
45762;SDS011;37512;52.408;13.356;2023-12-07T00:57:48;27.20;;;16.02;;
45762;SDS011;37512;52.408;13.356;2023-12-07T01:01:50;26.92;;;16.65;;
45762;SDS011;37512;52.408;13.356;2023-12-07T01:05:52;27.52;;;16.20;;
45762;SDS011;37512;52.408;13.356;2023-12-07T01:09:55;22.95;;;14.52;;
45762;SDS011;37512;52.408;13.356;2023-12-07T01:13:56;25.65;;;15.88;;
45762;SDS011;37512;52.408;13.356;2023-12-07T01:17:58;26.50;;;14.80;;
45762;SDS011;37512;52.408;13.356;2023-12-07T01:22:00;29.85;;;15.98;;
45762;SDS011;37512;52.408;13.356;2023-12-07T01:26:01;30.88;;;16.67;;
45762;SDS011;37512;52.408;13.356;2023-12-07T01:30:03;27.77;;;16.02;;
45762;SDS011;37512;52.408;13.356;2023-12-07T01:34:06;27.88;;;15.55;;
45762;SDS011;37512;52.408;13.356;2023-12-07T01:38:07;27.33;;;16.00;;
45762;SDS011;37512;52.408;13.356;2023-12-07T01:42:09;29.10;;;16.30;;
45762;SDS011;37512;52.408;13.356;2023-12-07T01:46:10;28.08;;;16.63;;
45762;SDS011;37512;52.408;13.356;2023-12-07T01:50:12;28.55;;;16.08;;
45762;SDS011;37512;52.408;13.356;2023-12-07T01:54:16;29.40;;;15.85;;
45762;SDS011;37512;52.408;13.356;2023-12-07T01:58:19;27.42;;;16.10;;
45762;SDS011;37512;52.408;13.356;2023-12-07T02:02:22;26.92;;;14.73;;
45762;SDS011;37512;52.408;13.356;2023-12-07T02:06:25;27.48;;;16.52;;
45762;SDS011;37512;52.408;13.356;2023-12-07T02:10:27;27.00;;;16.75;;
45762;SDS011;37512;52.408;13.356;2023-12-07T02:14:29;32.78;;;16.35;;
45762;SDS011;37512;52.408;13.356;2023-12-07T02:22:42;28.17;;;16.67;;
45762;SDS011;37512;52.408;13.356;2023-12-07T02:26:50;30.77;;;16.43;;
45762;SDS011;37512;52.408;13.356;2023-12-07T02:30:52;33.72;;;16.20;;
45762;SDS011;37512;52.408;13.356;2023-12-07T02:34:54;27.55;;;16.17;;
45762;SDS011;37512;52.408;13.356;2023-12-07T02:38:58;27.02;;;15.77;;
45762;SDS011;37512;52.408;13.356;2023-12-07T02:43:05;26.95;;;16.83;;
45762;SDS011;37512;52.408;13.356;2023-12-07T02:47:06;30.08;;;17.33;;
45762;SDS011;37512;52.408;13.356;2023-12-07T02:51:08;27.92;;;15.90;;
45762;SDS011;37512;52.408;13.356;2023-12-07T02:55:10;26.75;;;16.88;;
45762;SDS011;37512;52.408;13.356;2023-12-07T02:59:11;28.65;;;17.55;;
45762;SDS011;37512;52.408;13.356;2023-12-07T03:03:13;28.38;;;17.17;;
45762;SDS011;37512;52.408;13.356;2023-12-07T03:07:14;27.75;;;16.65;;
45762;SDS011;37512;52.408;13.356;2023-12-07T03:11:16;21.52;;;13.23;;
45762;SDS011;37512;52.408;13.356;2023-12-07T03:15:18;25.40;;;15.70;;
45762;SDS011;37512;52.408;13.356;2023-12-07T03:19:20;31.73;;;17.30;;
45762;SDS011;37512;52.408;13.356;2023-12-07T03:23:21;28.23;;;16.27;;
45762;SDS011;37512;52.408;13.356;2023-12-07T03:27:23;32.03;;;16.45;;
45762;SDS011;37512;52.408;13.356;2023-12-07T03:31:24;27.10;;;17.10;;
45762;SDS011;37512;52.408;13.356;2023-12-07T03:35:26;31.42;;;17.55;;
45762;SDS011;37512;52.408;13.356;2023-12-07T03:39:29;31.27;;;18.83;;
45762;SDS011;37512;52.408;13.356;2023-12-07T03:43:33;30.85;;;16.67;;
45762;SDS011;37512;52.408;13.356;2023-12-07T03:47:34;34.60;;;18.50;;
45762;SDS011;37512;52.408;13.356;2023-12-07T03:51:37;29.25;;;18.38;;
45762;SDS011;37512;52.408;13.356;2023-12-07T03:55:39;31.52;;;17.35;;
45762;SDS011;37512;52.408;13.356;2023-12-07T03:59:40;29.40;;;17.60;;
45762;SDS011;37512;52.408;13.356;2023-12-07T04:03:42;31.40;;;18.27;;
45762;SDS011;37512;52.408;13.356;2023-12-07T04:07:43;34.90;;;18.20;;
45762;SDS011;37512;52.408;13.356;2023-12-07T04:11:45;32.75;;;19.10;;
45762;SDS011;37512;52.408;13.356;2023-12-07T04:15:47;37.03;;;19.63;;
45762;SDS011;37512;52.408;13.356;2023-12-07T04:19:49;34.40;;;18.92;;
45762;SDS011;37512;52.408;13.356;2023-12-07T04:23:51;34.47;;;20.00;;
45762;SDS011;37512;52.408;13.356;2023-12-07T04:27:53;32.38;;;18.42;;
45762;SDS011;37512;52.408;13.356;2023-12-07T04:31:55;35.30;;;19.02;;
45762;SDS011;37512;52.408;13.356;2023-12-07T04:35:57;36.83;;;19.42;;
45762;SDS011;37512;52.408;13.356;2023-12-07T04:39:58;31.27;;;19.13;;
45762;SDS011;37512;52.408;13.356;2023-12-07T04:44:00;33.90;;;18.33;;
45762;SDS011;37512;52.408;13.356;2023-12-07T04:48:02;35.97;;;18.95;;
45762;SDS011;37512;52.408;13.356;2023-12-07T04:52:06;37.60;;;20.13;;
45762;SDS011;37512;52.408;13.356;2023-12-07T04:56:08;39.53;;;20.60;;
45762;SDS011;37512;52.408;13.356;2023-12-07T05:00:10;33.97;;;18.58;;
45762;SDS011;37512;52.408;13.356;2023-12-07T05:04:12;34.63;;;18.70;;
45762;SDS011;37512;52.408;13.356;2023-12-07T05:08:14;35.85;;;18.20;;
45762;SDS011;37512;52.408;13.356;2023-12-07T05:12:16;33.28;;;19.52;;
45762;SDS011;37512;52.408;13.356;2023-12-07T05:16:18;35.72;;;18.60;;
45762;SDS011;37512;52.408;13.356;2023-12-07T05:20:19;34.75;;;20.00;;
45762;SDS011;37512;52.408;13.356;2023-12-07T05:24:23;34.55;;;18.92;;
45762;SDS011;37512;52.408;13.356;2023-12-07T05:28:25;34.53;;;18.77;;
45762;SDS011;37512;52.408;13.356;2023-12-07T05:32:27;34.25;;;19.13;;
45762;SDS011;37512;52.408;13.356;2023-12-07T05:36:29;36.10;;;18.70;;
45762;SDS011;37512;52.408;13.356;2023-12-07T05:40:31;32.30;;;17.77;;
45762;SDS011;37512;52.408;13.356;2023-12-07T05:44:33;34.05;;;18.73;;
45762;SDS011;37512;52.408;13.356;2023-12-07T05:48:35;32.47;;;18.00;;
45762;SDS011;37512;52.408;13.356;2023-12-07T05:52:36;36.65;;;20.38;;
45762;SDS011;37512;52.408;13.356;2023-12-07T05:56:38;29.88;;;17.70;;
45762;SDS011;37512;52.408;13.356;2023-12-07T06:00:40;35.10;;;18.38;;
45762;SDS011;37512;52.408;13.356;2023-12-07T06:04:42;32.75;;;18.83;;
45762;SDS011;37512;52.408;13.356;2023-12-07T06:08:43;34.30;;;19.17;;
45762;SDS011;37512;52.408;13.356;2023-12-07T06:12:46;34.70;;;18.42;;
45762;SDS011;37512;52.408;13.356;2023-12-07T06:16:47;37.30;;;19.75;;
45762;SDS011;37512;52.408;13.356;2023-12-07T06:20:49;36.03;;;19.58;;
45762;SDS011;37512;52.408;13.356;2023-12-07T06:24:51;38.53;;;20.00;;
45762;SDS011;37512;52.408;13.356;2023-12-07T06:28:52;33.80;;;19.02;;
45762;SDS011;37512;52.408;13.356;2023-12-07T06:32:54;35.13;;;18.95;;
45762;SDS011;37512;52.408;13.356;2023-12-07T06:36:56;37.83;;;19.67;;
45762;SDS011;37512;52.408;13.356;2023-12-07T06:40:57;34.90;;;18.80;;
45762;SDS011;37512;52.408;13.356;2023-12-07T06:44:59;33.30;;;19.13;;
45762;SDS011;37512;52.408;13.356;2023-12-07T06:49:00;36.47;;;19.42;;
45762;SDS011;37512;52.408;13.356;2023-12-07T06:53:02;36.88;;;19.58;;
45762;SDS011;37512;52.408;13.356;2023-12-07T06:57:04;34.35;;;19.17;;
45762;SDS011;37512;52.408;13.356;2023-12-07T07:01:07;35.60;;;19.95;;
45762;SDS011;37512;52.408;13.356;2023-12-07T07:05:09;35.28;;;19.65;;
45762;SDS011;37512;52.408;13.356;2023-12-07T07:09:13;37.47;;;19.42;;
45762;SDS011;37512;52.408;13.356;2023-12-07T07:13:14;34.60;;;19.60;;
45762;SDS011;37512;52.408;13.356;2023-12-07T07:17:16;40.85;;;21.52;;
45762;SDS011;37512;52.408;13.356;2023-12-07T07:21:21;37.17;;;20.27;;
45762;SDS011;37512;52.408;13.356;2023-12-07T07:25:22;34.28;;;18.83;;
45762;SDS011;37512;52.408;13.356;2023-12-07T07:29:24;42.22;;;21.48;;
45762;SDS011;37512;52.408;13.356;2023-12-07T07:33:29;27.67;;;15.68;;
45762;SDS011;37512;52.408;13.356;2023-12-07T07:37:30;38.40;;;19.33;;
45762;SDS011;37512;52.408;13.356;2023-12-07T07:41:32;38.65;;;21.25;;
45762;SDS011;37512;52.408;13.356;2023-12-07T07:45:33;37.22;;;19.50;;
45762;SDS011;37512;52.408;13.356;2023-12-07T07:49:36;40.42;;;21.70;;
45762;SDS011;37512;52.408;13.356;2023-12-07T07:53:38;43.17;;;20.77;;
45762;SDS011;37512;52.408;13.356;2023-12-07T07:57:40;48.00;;;23.63;;
45762;SDS011;37512;52.408;13.356;2023-12-07T08:01:42;40.20;;;20.73;;
45762;SDS011;37512;52.408;13.356;2023-12-07T08:05:43;39.60;;;20.17;;
45762;SDS011;37512;52.408;13.356;2023-12-07T08:09:45;40.17;;;20.80;;
45762;SDS011;37512;52.408;13.356;2023-12-07T08:13:47;40.90;;;21.70;;
45762;SDS011;37512;52.408;13.356;2023-12-07T08:17:49;45.60;;;23.73;;
45762;SDS011;37512;52.408;13.356;2023-12-07T08:21:52;44.22;;;21.63;;
45762;SDS011;37512;52.408;13.356;2023-12-07T08:25:54;41.20;;;23.73;;
45762;SDS011;37512;52.408;13.356;2023-12-07T08:29:58;40.65;;;22.00;;
45762;SDS011;37512;52.408;13.356;2023-12-07T08:34:00;38.72;;;19.98;;
45762;SDS011;37512;52.408;13.356;2023-12-07T08:38:02;45.80;;;22.38;;
45762;SDS011;37512;52.408;13.356;2023-12-07T08:42:05;40.67;;;21.05;;
45762;SDS011;37512;52.408;13.356;2023-12-07T08:46:07;40.53;;;21.38;;
45762;SDS011;37512;52.408;13.356;2023-12-07T08:50:09;47.45;;;22.05;;
45762;SDS011;37512;52.408;13.356;2023-12-07T08:54:10;26.88;;;16.05;;
45762;SDS011;37512;52.408;13.356;2023-12-07T08:58:13;44.97;;;24.85;;
45762;SDS011;37512;52.408;13.356;2023-12-07T09:02:15;45.55;;;22.92;;
45762;SDS011;37512;52.408;13.356;2023-12-07T09:06:33;37.78;;;18.02;;
45762;SDS011;37512;52.408;13.356;2023-12-07T09:10:35;41.75;;;22.13;;
45762;SDS011;37512;52.408;13.356;2023-12-07T09:14:37;47.45;;;22.85;;
45762;SDS011;37512;52.408;13.356;2023-12-07T09:18:40;45.15;;;21.70;;
45762;SDS011;37512;52.408;13.356;2023-12-07T09:22:46;45.10;;;23.70;;
45762;SDS011;37512;52.408;13.356;2023-12-07T09:26:50;47.15;;;24.00;;
45762;SDS011;37512;52.408;13.356;2023-12-07T09:30:52;47.10;;;21.20;;
45762;SDS011;37512;52.408;13.356;2023-12-07T09:34:53;47.22;;;22.60;;
45762;SDS011;37512;52.408;13.356;2023-12-07T09:38:55;34.33;;;19.25;;
45762;SDS011;37512;52.408;13.356;2023-12-07T09:42:57;42.35;;;20.95;;
45762;SDS011;37512;52.408;13.356;2023-12-07T09:46:59;37.80;;;19.02;;
45762;SDS011;37512;52.408;13.356;2023-12-07T09:51:03;24.40;;;12.30;;
45762;SDS011;37512;52.408;13.356;2023-12-07T09:55:07;48.72;;;23.73;;
45762;SDS011;37512;52.408;13.356;2023-12-07T09:59:09;46.75;;;23.25;;
45762;SDS011;37512;52.408;13.356;2023-12-07T10:03:19;47.53;;;22.05;;
45762;SDS011;37512;52.408;13.356;2023-12-07T10:07:31;43.88;;;23.45;;
45762;SDS011;37512;52.408;13.356;2023-12-07T10:11:35;46.50;;;20.02;;
45762;SDS011;37512;52.408;13.356;2023-12-07T10:15:37;43.53;;;22.15;;
45762;SDS011;37512;52.408;13.356;2023-12-07T10:19:39;50.38;;;22.20;;
45762;SDS011;37512;52.408;13.356;2023-12-07T10:23:41;49.13;;;23.27;;
45762;SDS011;37512;52.408;13.356;2023-12-07T10:27:49;45.87;;;22.60;;
45762;SDS011;37512;52.408;13.356;2023-12-07T10:31:51;40.42;;;21.48;;
45762;SDS011;37512;52.408;13.356;2023-12-07T10:36:02;53.05;;;24.75;;
45762;SDS011;37512;52.408;13.356;2023-12-07T10:40:04;40.95;;;21.05;;
45762;SDS011;37512;52.408;13.356;2023-12-07T10:44:07;39.15;;;19.45;;
45762;SDS011;37512;52.408;13.356;2023-12-07T10:48:12;46.22;;;22.35;;
45762;SDS011;37512;52.408;13.356;2023-12-07T10:52:16;48.10;;;22.92;;
45762;SDS011;37512;52.408;13.356;2023-12-07T10:56:45;53.25;;;23.50;;
45762;SDS011;37512;52.408;13.356;2023-12-07T11:00:49;47.33;;;22.25;;
45762;SDS011;37512;52.408;13.356;2023-12-07T11:04:51;50.75;;;23.50;;
45762;SDS011;37512;52.408;13.356;2023-12-07T11:08:57;52.95;;;23.52;;
45762;SDS011;37512;52.408;13.356;2023-12-07T11:13:18;52.00;;;23.65;;
45762;SDS011;37512;52.408;13.356;2023-12-07T11:17:27;47.85;;;23.85;;
45762;SDS011;37512;52.408;13.356;2023-12-07T11:21:31;49.55;;;24.27;;
45762;SDS011;37512;52.408;13.356;2023-12-07T11:25:33;48.28;;;22.15;;
45762;SDS011;37512;52.408;13.356;2023-12-07T11:29:35;52.28;;;23.52;;
45762;SDS011;37512;52.408;13.356;2023-12-07T11:33:37;44.47;;;22.70;;
45762;SDS011;37512;52.408;13.356;2023-12-07T11:46:12;29.10;;;14.50;;
45762;SDS011;37512;52.408;13.356;2023-12-07T11:50:15;46.83;;;24.02;;
45762;SDS011;37512;52.408;13.356;2023-12-07T11:54:17;54.25;;;25.35;;
45762;SDS011;37512;52.408;13.356;2023-12-07T11:58:18;51.85;;;24.65;;
45762;SDS011;37512;52.408;13.356;2023-12-07T12:02:21;45.10;;;23.50;;
45762;SDS011;37512;52.408;13.356;2023-12-07T12:06:23;46.35;;;22.63;;
45762;SDS011;37512;52.408;13.356;2023-12-07T12:10:25;49.92;;;24.05;;
45762;SDS011;37512;52.408;13.356;2023-12-07T12:14:27;47.88;;;22.98;;
45762;SDS011;37512;52.408;13.356;2023-12-07T12:18:29;50.00;;;23.45;;
45762;SDS011;37512;52.408;13.356;2023-12-07T12:22:31;51.78;;;25.98;;
45762;SDS011;37512;52.408;13.356;2023-12-07T12:26:33;47.42;;;23.35;;
45762;SDS011;37512;52.408;13.356;2023-12-07T12:30:35;53.03;;;23.85;;
45762;SDS011;37512;52.408;13.356;2023-12-07T12:34:37;48.63;;;23.83;;
45762;SDS011;37512;52.408;13.356;2023-12-07T12:38:39;51.38;;;25.15;;
45762;SDS011;37512;52.408;13.356;2023-12-07T12:42:48;42.10;;;21.13;;
45762;SDS011;37512;52.408;13.356;2023-12-07T12:50:56;55.97;;;25.35;;
45762;SDS011;37512;52.408;13.356;2023-12-07T12:54:58;58.22;;;26.63;;
45762;SDS011;37512;52.408;13.356;2023-12-07T12:58:59;61.33;;;28.80;;
45762;SDS011;37512;52.408;13.356;2023-12-07T13:03:06;74.53;;;31.88;;
45762;SDS011;37512;52.408;13.356;2023-12-07T13:07:08;58.58;;;27.30;;
45762;SDS011;37512;52.408;13.356;2023-12-07T13:11:17;56.28;;;26.48;;
45762;SDS011;37512;52.408;13.356;2023-12-07T13:15:20;61.05;;;27.92;;
45762;SDS011;37512;52.408;13.356;2023-12-07T13:19:22;56.65;;;28.73;;
45762;SDS011;37512;52.408;13.356;2023-12-07T13:23:23;61.63;;;26.48;;
45762;SDS011;37512;52.408;13.356;2023-12-07T13:27:25;50.80;;;24.02;;
45762;SDS011;37512;52.408;13.356;2023-12-07T13:31:27;65.85;;;27.23;;
45762;SDS011;37512;52.408;13.356;2023-12-07T13:35:29;66.60;;;28.75;;
45762;SDS011;37512;52.408;13.356;2023-12-07T13:39:31;65.88;;;29.80;;
45762;SDS011;37512;52.408;13.356;2023-12-07T13:43:33;60.47;;;26.23;;
45762;SDS011;37512;52.408;13.356;2023-12-07T13:47:35;75.05;;;29.80;;
45762;SDS011;37512;52.408;13.356;2023-12-07T13:51:40;69.05;;;27.55;;
45762;SDS011;37512;52.408;13.356;2023-12-07T13:55:42;66.88;;;26.67;;
45762;SDS011;37512;52.408;13.356;2023-12-07T13:59:44;78.22;;;28.92;;
45762;SDS011;37512;52.408;13.356;2023-12-07T14:03:46;78.28;;;29.98;;
45762;SDS011;37512;52.408;13.356;2023-12-07T14:07:48;70.78;;;27.02;;
45762;SDS011;37512;52.408;13.356;2023-12-07T14:11:49;79.63;;;32.20;;
45762;SDS011;37512;52.408;13.356;2023-12-07T14:15:53;75.43;;;30.75;;
45762;SDS011;37512;52.408;13.356;2023-12-07T14:20:00;78.30;;;29.45;;
45762;SDS011;37512;52.408;13.356;2023-12-07T14:24:22;91.78;;;29.35;;
45762;SDS011;37512;52.408;13.356;2023-12-07T14:28:26;82.45;;;28.67;;
45762;SDS011;37512;52.408;13.356;2023-12-07T14:32:31;98.72;;;24.35;;
45762;SDS011;37512;52.408;13.356;2023-12-07T14:36:33;138.05;;;26.40;;
45762;SDS011;37512;52.408;13.356;2023-12-07T14:40:37;109.88;;;28.25;;
45762;SDS011;37512;52.408;13.356;2023-12-07T14:44:39;118.40;;;29.23;;
45762;SDS011;37512;52.408;13.356;2023-12-07T14:48:41;168.43;;;29.75;;
45762;SDS011;37512;52.408;13.356;2023-12-07T14:52:43;105.95;;;31.38;;
45762;SDS011;37512;52.408;13.356;2023-12-07T14:56:44;113.10;;;30.13;;
45762;SDS011;37512;52.408;13.356;2023-12-07T15:00:46;304.98;;;34.72;;
45762;SDS011;37512;52.408;13.356;2023-12-07T15:04:48;117.20;;;30.73;;
45762;SDS011;37512;52.408;13.356;2023-12-07T15:08:50;107.10;;;32.70;;
45762;SDS011;37512;52.408;13.356;2023-12-07T15:12:52;119.57;;;31.73;;
45762;SDS011;37512;52.408;13.356;2023-12-07T15:16:53;131.27;;;31.00;;
45762;SDS011;37512;52.408;13.356;2023-12-07T15:20:55;83.68;;;26.30;;
45762;SDS011;37512;52.408;13.356;2023-12-07T15:24:57;147.75;;;32.55;;
45762;SDS011;37512;52.408;13.356;2023-12-07T15:28:59;304.00;;;38.47;;
45762;SDS011;37512;52.408;13.356;2023-12-07T15:33:01;155.25;;;30.88;;
45762;SDS011;37512;52.408;13.356;2023-12-07T15:37:05;113.93;;;30.65;;
45762;SDS011;37512;52.408;13.356;2023-12-07T15:41:09;123.65;;;31.70;;
45762;SDS011;37512;52.408;13.356;2023-12-07T15:45:11;162.55;;;29.92;;
45762;SDS011;37512;52.408;13.356;2023-12-07T15:49:13;133.57;;;26.38;;
45762;SDS011;37512;52.408;13.356;2023-12-07T15:53:14;92.53;;;30.58;;
45762;SDS011;37512;52.408;13.356;2023-12-07T15:57:17;125.68;;;30.17;;
45762;SDS011;37512;52.408;13.356;2023-12-07T16:01:19;102.70;;;28.75;;
45762;SDS011;37512;52.408;13.356;2023-12-07T16:05:23;227.32;;;34.92;;
45762;SDS011;37512;52.408;13.356;2023-12-07T16:09:25;129.50;;;27.50;;
45762;SDS011;37512;52.408;13.356;2023-12-07T16:13:26;208.85;;;28.75;;
45762;SDS011;37512;52.408;13.356;2023-12-07T16:17:28;161.05;;;29.23;;
45762;SDS011;37512;52.408;13.356;2023-12-07T16:21:30;201.88;;;29.33;;
45762;SDS011;37512;52.408;13.356;2023-12-07T16:25:34;216.63;;;29.17;;
45762;SDS011;37512;52.408;13.356;2023-12-07T16:29:35;205.50;;;55.25;;
45762;SDS011;37512;52.408;13.356;2023-12-07T16:33:38;170.70;;;27.73;;
45762;SDS011;37512;52.408;13.356;2023-12-07T16:37:41;89.05;;;23.52;;
45762;SDS011;37512;52.408;13.356;2023-12-07T16:41:43;158.38;;;26.58;;
45762;SDS011;37512;52.408;13.356;2023-12-07T16:45:58;140.27;;;24.00;;
45762;SDS011;37512;52.408;13.356;2023-12-07T16:49:59;197.85;;;26.60;;
45762;SDS011;37512;52.408;13.356;2023-12-07T16:54:01;82.75;;;23.42;;
45762;SDS011;37512;52.408;13.356;2023-12-07T16:58:03;282.73;;;29.27;;
45762;SDS011;37512;52.408;13.356;2023-12-07T17:02:05;186.13;;;22.70;;
45762;SDS011;37512;52.408;13.356;2023-12-07T17:06:06;160.63;;;26.90;;
45762;SDS011;37512;52.408;13.356;2023-12-07T17:10:10;174.30;;;27.02;;
45762;SDS011;37512;52.408;13.356;2023-12-07T17:14:12;102.55;;;21.50;;
45762;SDS011;37512;52.408;13.356;2023-12-07T17:18:14;132.70;;;26.05;;
45762;SDS011;37512;52.408;13.356;2023-12-07T17:22:16;97.57;;;23.02;;
45762;SDS011;37512;52.408;13.356;2023-12-07T17:26:17;181.80;;;24.73;;
45762;SDS011;37512;52.408;13.356;2023-12-07T17:30:19;135.25;;;22.15;;
45762;SDS011;37512;52.408;13.356;2023-12-07T17:34:22;202.07;;;25.80;;
45762;SDS011;37512;52.408;13.356;2023-12-07T17:38:24;104.68;;;22.73;;
45762;SDS011;37512;52.408;13.356;2023-12-07T17:42:25;95.05;;;21.88;;
45762;SDS011;37512;52.408;13.356;2023-12-07T17:46:28;211.85;;;26.50;;
45762;SDS011;37512;52.408;13.356;2023-12-07T17:50:29;100.03;;;22.85;;
45762;SDS011;37512;52.408;13.356;2023-12-07T17:54:31;79.40;;;22.02;;
45762;SDS011;37512;52.408;13.356;2023-12-07T17:58:33;112.85;;;23.50;;
45762;SDS011;37512;52.408;13.356;2023-12-07T18:02:35;140.10;;;23.48;;
45762;SDS011;37512;52.408;13.356;2023-12-07T18:06:37;120.50;;;26.25;;
45762;SDS011;37512;52.408;13.356;2023-12-07T18:10:40;134.88;;;26.08;;
45762;SDS011;37512;52.408;13.356;2023-12-07T18:14:41;92.30;;;32.47;;
45762;SDS011;37512;52.408;13.356;2023-12-07T18:18:43;100.18;;;25.70;;
45762;SDS011;37512;52.408;13.356;2023-12-07T18:22:45;87.18;;;25.92;;
45762;SDS011;37512;52.408;13.356;2023-12-07T18:26:46;79.82;;;26.50;;
45762;SDS011;37512;52.408;13.356;2023-12-07T18:30:48;86.57;;;27.67;;
45762;SDS011;37512;52.408;13.356;2023-12-07T18:34:50;86.60;;;25.75;;
45762;SDS011;37512;52.408;13.356;2023-12-07T18:38:52;106.68;;;27.15;;
45762;SDS011;37512;52.408;13.356;2023-12-07T18:42:53;90.55;;;29.55;;
45762;SDS011;37512;52.408;13.356;2023-12-07T18:46:55;100.03;;;35.80;;
45762;SDS011;37512;52.408;13.356;2023-12-07T18:50:59;100.68;;;32.78;;
45762;SDS011;37512;52.408;13.356;2023-12-07T18:55:01;84.55;;;27.98;;
45762;SDS011;37512;52.408;13.356;2023-12-07T18:59:02;74.07;;;27.40;;
45762;SDS011;37512;52.408;13.356;2023-12-07T19:03:05;79.40;;;27.55;;
45762;SDS011;37512;52.408;13.356;2023-12-07T19:07:07;63.83;;;24.40;;
45762;SDS011;37512;52.408;13.356;2023-12-07T19:11:08;67.72;;;21.52;;
45762;SDS011;37512;52.408;13.356;2023-12-07T19:15:10;70.90;;;27.40;;
45762;SDS011;37512;52.408;13.356;2023-12-07T19:19:12;93.25;;;25.45;;
45762;SDS011;37512;52.408;13.356;2023-12-07T19:23:14;64.85;;;23.38;;
45762;SDS011;37512;52.408;13.356;2023-12-07T19:27:17;67.53;;;23.38;;
45762;SDS011;37512;52.408;13.356;2023-12-07T19:31:19;71.32;;;23.17;;
45762;SDS011;37512;52.408;13.356;2023-12-07T19:35:22;76.00;;;26.98;;
45762;SDS011;37512;52.408;13.356;2023-12-07T19:39:24;63.25;;;24.05;;
45762;SDS011;37512;52.408;13.356;2023-12-07T19:43:26;76.60;;;30.08;;
45762;SDS011;37512;52.408;13.356;2023-12-07T19:47:27;78.00;;;25.40;;
45762;SDS011;37512;52.408;13.356;2023-12-07T19:51:30;64.82;;;24.00;;
45762;SDS011;37512;52.408;13.356;2023-12-07T19:55:32;63.08;;;24.42;;
45762;SDS011;37512;52.408;13.356;2023-12-07T19:59:34;68.90;;;25.33;;
45762;SDS011;37512;52.408;13.356;2023-12-07T20:03:36;66.70;;;26.00;;
45762;SDS011;37512;52.408;13.356;2023-12-07T20:07:37;59.80;;;27.00;;
45762;SDS011;37512;52.408;13.356;2023-12-07T20:11:42;66.22;;;28.00;;
45762;SDS011;37512;52.408;13.356;2023-12-07T20:15:44;75.45;;;27.10;;
45762;SDS011;37512;52.408;13.356;2023-12-07T20:19:47;77.65;;;28.17;;
45762;SDS011;37512;52.408;13.356;2023-12-07T20:23:49;81.80;;;28.23;;
45762;SDS011;37512;52.408;13.356;2023-12-07T20:27:51;87.22;;;27.95;;
45762;SDS011;37512;52.408;13.356;2023-12-07T20:31:53;87.95;;;28.98;;
45762;SDS011;37512;52.408;13.356;2023-12-07T20:35:54;86.85;;;29.63;;
45762;SDS011;37512;52.408;13.356;2023-12-07T20:39:56;74.00;;;27.08;;
45762;SDS011;37512;52.408;13.356;2023-12-07T20:43:58;75.05;;;28.13;;
45762;SDS011;37512;52.408;13.356;2023-12-07T20:47:59;96.00;;;30.92;;
45762;SDS011;37512;52.408;13.356;2023-12-07T20:52:01;77.13;;;28.15;;
45762;SDS011;37512;52.408;13.356;2023-12-07T20:56:05;72.35;;;27.33;;
45762;SDS011;37512;52.408;13.356;2023-12-07T21:00:07;68.88;;;26.88;;
45762;SDS011;37512;52.408;13.356;2023-12-07T21:04:09;80.95;;;28.67;;
45762;SDS011;37512;52.408;13.356;2023-12-07T21:08:11;80.05;;;28.83;;
45762;SDS011;37512;52.408;13.356;2023-12-07T21:12:13;80.53;;;29.50;;
45762;SDS011;37512;52.408;13.356;2023-12-07T21:16:15;81.03;;;27.83;;
45762;SDS011;37512;52.408;13.356;2023-12-07T21:20:16;64.82;;;25.98;;
45762;SDS011;37512;52.408;13.356;2023-12-07T21:24:18;71.22;;;29.13;;
45762;SDS011;37512;52.408;13.356;2023-12-07T21:28:20;74.05;;;26.75;;
45762;SDS011;37512;52.408;13.356;2023-12-07T21:32:21;72.45;;;28.73;;
45762;SDS011;37512;52.408;13.356;2023-12-07T21:36:23;69.22;;;26.00;;
45762;SDS011;37512;52.408;13.356;2023-12-07T21:40:24;75.13;;;28.70;;
45762;SDS011;37512;52.408;13.356;2023-12-07T21:44:26;74.78;;;28.52;;
45762;SDS011;37512;52.408;13.356;2023-12-07T21:48:29;72.43;;;28.77;;
45762;SDS011;37512;52.408;13.356;2023-12-07T21:52:31;71.82;;;27.05;;
45762;SDS011;37512;52.408;13.356;2023-12-07T21:56:32;66.18;;;27.17;;
45762;SDS011;37512;52.408;13.356;2023-12-07T22:00:34;78.10;;;28.88;;
45762;SDS011;37512;52.408;13.356;2023-12-07T22:04:36;77.45;;;28.33;;
45762;SDS011;37512;52.408;13.356;2023-12-07T22:08:39;70.00;;;26.35;;
45762;SDS011;37512;52.408;13.356;2023-12-07T22:12:40;67.93;;;26.55;;
45762;SDS011;37512;52.408;13.356;2023-12-07T22:16:42;73.95;;;27.58;;
45762;SDS011;37512;52.408;13.356;2023-12-07T22:20:44;64.35;;;26.75;;
45762;SDS011;37512;52.408;13.356;2023-12-07T22:24:46;77.10;;;28.17;;
45762;SDS011;37512;52.408;13.356;2023-12-07T22:28:48;78.60;;;26.83;;
45762;SDS011;37512;52.408;13.356;2023-12-07T22:32:50;74.75;;;26.15;;
45762;SDS011;37512;52.408;13.356;2023-12-07T22:36:51;68.35;;;22.73;;
45762;SDS011;37512;52.408;13.356;2023-12-07T22:40:53;56.60;;;23.20;;
45762;SDS011;37512;52.408;13.356;2023-12-07T22:44:54;59.03;;;23.02;;
45762;SDS011;37512;52.408;13.356;2023-12-07T22:48:56;63.88;;;24.10;;
45762;SDS011;37512;52.408;13.356;2023-12-07T22:52:58;72.63;;;26.25;;
45762;SDS011;37512;52.408;13.356;2023-12-07T22:56:59;83.53;;;23.58;;
45762;SDS011;37512;52.408;13.356;2023-12-07T23:01:04;70.10;;;22.98;;
45762;SDS011;37512;52.408;13.356;2023-12-07T23:05:06;63.65;;;22.67;;
45762;SDS011;37512;52.408;13.356;2023-12-07T23:09:08;49.80;;;21.10;;
45762;SDS011;37512;52.408;13.356;2023-12-07T23:13:09;48.05;;;20.83;;
45762;SDS011;37512;52.408;13.356;2023-12-07T23:17:11;48.05;;;21.98;;
45762;SDS011;37512;52.408;13.356;2023-12-07T23:21:12;57.85;;;24.17;;
45762;SDS011;37512;52.408;13.356;2023-12-07T23:25:15;58.60;;;23.08;;
45762;SDS011;37512;52.408;13.356;2023-12-07T23:29:17;56.95;;;22.38;;
45762;SDS011;37512;52.408;13.356;2023-12-07T23:33:18;68.60;;;24.38;;